createdAt,value
2019-05-16T00:00:33.503Z,45.1
2019-05-16T00:01:42.449Z,45.1
2019-05-16T00:02:56.578Z,45
2019-05-16T00:04:10.754Z,45
2019-05-16T00:05:24.907Z,44.9
2019-05-16T00:06:39.114Z,45.2
2019-05-16T00:07:53.377Z,45.7
2019-05-16T00:09:07.490Z,45.6
2019-05-16T00:10:21.749Z,45.2
2019-05-16T00:11:35.906Z,45.1
2019-05-16T00:12:50.014Z,44.1
2019-05-16T00:14:04.192Z,44.7
2019-05-16T00:15:18.447Z,45.4
2019-05-16T00:16:32.600Z,44.4
2019-05-16T00:17:51.106Z,44.9
2019-05-16T00:19:00.942Z,44.9
2019-05-16T00:20:15.116Z,45.1
2019-05-16T00:21:34.049Z,45.2
2019-05-16T00:22:43.548Z,44.6
2019-05-16T00:23:57.680Z,44
2019-05-16T00:25:11.924Z,45.3
2019-05-16T00:26:26.037Z,45.4
2019-05-16T00:27:40.372Z,45.4
2019-05-16T00:28:54.435Z,45.8
2019-05-16T00:30:08.580Z,45.1
2019-05-16T00:31:22.851Z,44.7
2019-05-16T00:32:36.929Z,45.8
2019-05-16T00:33:51.097Z,45.5
2019-05-16T00:35:05.274Z,45.7
2019-05-16T00:36:19.510Z,46.1
2019-05-16T00:37:33.695Z,45.5
2019-05-16T00:38:50.740Z,45.9
2019-05-16T00:40:02.063Z,46.5
2019-05-16T00:41:16.252Z,45.6
2019-05-16T00:42:30.407Z,46.3
2019-05-16T00:43:44.550Z,45.7
2019-05-16T00:44:58.722Z,45.4
2019-05-16T00:46:13.021Z,46.6
2019-05-16T00:47:27.194Z,46.5
2019-05-16T00:48:41.379Z,45.9
2019-05-16T00:49:55.609Z,45.7
2019-05-16T00:51:09.693Z,45.3
2019-05-16T00:52:23.877Z,46.1
2019-05-16T00:53:38.065Z,46.7
2019-05-16T00:56:06.595Z,47.2
2019-05-16T00:57:20.735Z,46.2
2019-05-16T00:58:34.822Z,46.4
2019-05-16T00:59:51.563Z,46.9
2019-05-16T01:01:03.331Z,47
2019-05-16T01:02:17.385Z,47.1
2019-05-16T01:03:31.746Z,46.2
2019-05-16T01:04:45.894Z,48.3
2019-05-16T01:06:00.057Z,48.1
2019-05-16T01:07:14.174Z,48.5
2019-05-16T01:08:28.453Z,49.6
2019-05-16T01:09:42.619Z,48.6
2019-05-16T01:10:56.715Z,48.1
2019-05-16T01:12:10.987Z,47.5
2019-05-16T01:13:25.150Z,48.2
2019-05-16T01:14:39.360Z,48.4
2019-05-16T01:15:53.508Z,49.7
2019-05-16T01:17:07.745Z,48.9
2019-05-16T01:18:21.976Z,49.4
2019-05-16T01:19:36.108Z,49.9
2019-05-16T01:20:50.690Z,48.8
2019-05-16T01:22:04.696Z,50.5
2019-05-16T01:23:18.774Z,50
2019-05-16T01:24:33.018Z,50.1
2019-05-16T01:25:47.270Z,51.2
2019-05-16T01:27:01.283Z,52.7
2019-05-16T01:28:15.494Z,52.3
2019-05-16T01:29:29.751Z,51.8
2019-05-16T01:30:43.900Z,51.6
2019-05-16T01:31:58.258Z,52.2
2019-05-16T01:33:12.331Z,51.8
2019-05-16T01:34:26.493Z,53.5
2019-05-16T01:35:40.677Z,54.7
2019-05-16T01:36:54.850Z,55.2
2019-05-16T01:38:09.085Z,54.6
2019-05-16T01:39:23.347Z,54.1
2019-05-16T01:40:37.572Z,53.6
2019-05-16T01:41:51.812Z,54.4
2019-05-16T01:43:05.824Z,53.6
2019-05-16T01:44:20.045Z,53.7
2019-05-16T01:45:34.215Z,55.3
2019-05-16T01:46:48.467Z,55.1
2019-05-16T01:48:02.588Z,55.4
2019-05-16T01:49:16.871Z,54.8
2019-05-16T01:50:31.051Z,55.7
2019-05-16T01:51:45.247Z,55.2
2019-05-16T01:52:59.357Z,56
2019-05-16T01:54:13.564Z,56.4
2019-05-16T01:55:27.769Z,56.2
2019-05-16T01:56:42.114Z,56.8
2019-05-16T01:57:56.296Z,56.9
2019-05-16T01:59:10.328Z,57.3
2019-05-16T02:00:24.698Z,56.8
2019-05-16T02:01:38.719Z,56.8
2019-05-16T02:04:10.749Z,55.9
2019-05-16T02:05:21.298Z,55.6
2019-05-16T02:06:35.545Z,55.5
2019-05-16T02:07:49.747Z,56.3
2019-05-16T02:09:03.879Z,56.2
2019-05-16T02:10:18.150Z,57
2019-05-16T02:11:32.285Z,56.2
2019-05-16T02:12:46.478Z,55.9
2019-05-16T02:14:00.650Z,55.7
2019-05-16T02:15:14.865Z,56.2
2019-05-16T02:16:29.104Z,55.1
2019-05-16T02:17:43.228Z,55.1
2019-05-16T02:18:57.423Z,55.6
2019-05-16T02:20:11.727Z,55
2019-05-16T02:21:25.802Z,55.2
2019-05-16T02:22:40.624Z,55.3
2019-05-16T02:23:54.302Z,55.1
2019-05-16T02:25:08.466Z,55.2
2019-05-16T02:26:22.583Z,54.7
2019-05-16T02:27:36.785Z,55.7
2019-05-16T02:28:51.086Z,55.8
2019-05-16T02:30:05.179Z,55.1
2019-05-16T02:31:19.364Z,53.9
2019-05-16T02:32:33.528Z,54.7
2019-05-16T02:33:47.722Z,54.1
2019-05-16T02:35:01.930Z,54.1
2019-05-16T02:36:16.194Z,53.9
2019-05-16T02:37:30.333Z,54.3
2019-05-16T02:41:12.904Z,55.4
2019-05-16T02:42:27.144Z,54.4
2019-05-16T02:43:41.321Z,54.6
2019-05-16T02:44:55.567Z,54.9
2019-05-16T02:46:09.676Z,53.9
2019-05-16T02:47:23.983Z,55.2
2019-05-16T02:48:38.092Z,55.5
2019-05-16T02:49:52.260Z,53.9
2019-05-16T02:51:06.546Z,54.1
2019-05-16T02:52:20.917Z,53.9
2019-05-16T02:53:34.882Z,54.5
2019-05-16T02:54:49.111Z,54.4
2019-05-16T02:56:03.269Z,53.8
2019-05-16T02:57:17.522Z,54.3
2019-05-16T02:58:31.685Z,53.9
2019-05-16T02:59:45.855Z,53.7
2019-05-16T03:01:00.059Z,53.5
2019-05-16T03:02:14.242Z,53.5
2019-05-16T03:03:28.501Z,54.6
2019-05-16T03:05:58.122Z,54
2019-05-16T03:07:11.181Z,53.7
2019-05-16T03:08:25.295Z,53.4
2019-05-16T03:09:39.441Z,53.4
2019-05-16T03:10:53.630Z,53.2
2019-05-16T03:12:07.875Z,53.9
2019-05-16T03:13:22.106Z,54.2
2019-05-16T03:14:36.272Z,54.3
2019-05-16T03:17:04.633Z,53.6
2019-05-16T03:18:18.826Z,53.5
2019-05-16T03:19:33.027Z,53.6
2019-05-16T03:20:50.672Z,53.7
2019-05-16T03:22:04.084Z,53.6
2019-05-16T03:23:17.757Z,53.6
2019-05-16T03:24:32.636Z,53.4
2019-05-16T03:25:45.813Z,53.1
2019-05-16T03:26:59.564Z,52.7
2019-05-16T03:28:13.369Z,53.4
2019-05-16T03:30:42.069Z,55.8
2019-05-16T03:31:55.086Z,56.1
2019-05-16T03:33:09.261Z,54.5
2019-05-16T03:34:24.263Z,53.8
2019-05-16T03:35:38.199Z,54.2
2019-05-16T03:36:51.878Z,54.5
2019-05-16T03:38:06.128Z,55.5
2019-05-16T03:39:20.340Z,54.4
2019-05-16T03:40:37.565Z,53.9
2019-05-16T03:41:48.699Z,53.7
2019-05-16T03:43:02.903Z,54.5
2019-05-16T03:44:20.573Z,53.7
2019-05-16T03:45:31.456Z,54.1
2019-05-16T03:46:45.534Z,54.3
2019-05-16T03:47:59.766Z,54.5
2019-05-16T03:49:13.928Z,54.3
2019-05-16T03:50:28.191Z,54.7
2019-05-16T03:51:42.355Z,54.2
2019-05-16T03:52:56.519Z,54.4
2019-05-16T03:54:10.832Z,55.1
2019-05-16T03:55:25.459Z,54.6
2019-05-16T03:56:39.130Z,54.2
2019-05-16T03:57:53.349Z,55.2
2019-05-16T03:59:07.580Z,55.9
2019-05-16T04:00:21.968Z,54.6
2019-05-16T04:01:36.037Z,55.2
2019-05-16T04:02:50.165Z,55.5
2019-05-16T04:04:04.488Z,55.7
2019-05-16T04:05:18.640Z,55
2019-05-16T04:06:32.795Z,56.1
2019-05-16T04:09:01.211Z,55.4
2019-05-16T04:10:15.475Z,55.1
2019-05-16T04:11:29.590Z,56.1
2019-05-16T04:12:43.788Z,55.4
2019-05-16T04:13:58.236Z,54.8
2019-05-16T04:15:12.197Z,56.3
2019-05-16T04:16:26.442Z,56.2
2019-05-16T04:17:40.629Z,56.4
2019-05-16T04:18:54.844Z,57.2
2019-05-16T04:20:09.077Z,56.6
2019-05-16T04:21:23.210Z,56
2019-05-16T04:22:37.437Z,56.7
2019-05-16T04:23:51.870Z,56.8
2019-05-16T04:25:05.910Z,56.8
2019-05-16T04:26:20.139Z,56.3
2019-05-16T04:27:34.222Z,56.9
2019-05-16T04:28:48.441Z,57.6
2019-05-16T04:30:02.633Z,58.4
2019-05-16T04:31:16.838Z,57.1
2019-05-16T04:32:31.015Z,57.2
2019-05-16T04:33:45.271Z,56.8
2019-05-16T04:34:59.526Z,59.1
2019-05-16T04:36:13.676Z,57.8
2019-05-16T04:37:27.938Z,58.8
2019-05-16T04:38:44.331Z,58.4
2019-05-16T04:39:56.227Z,59
2019-05-16T04:41:10.447Z,58.7
2019-05-16T04:42:24.637Z,58.7
2019-05-16T04:44:53.035Z,58.7
2019-05-16T04:46:07.440Z,58.9
2019-05-16T04:47:21.566Z,59.1
2019-05-16T04:48:35.854Z,58.7
2019-05-16T04:49:49.838Z,58.9
2019-05-16T04:51:04.220Z,59.1
2019-05-16T04:52:18.370Z,58.9
2019-05-16T04:53:32.472Z,58.9
2019-05-16T04:54:46.687Z,61.1
2019-05-16T04:56:06.053Z,59.3
2019-05-16T04:57:15.081Z,59
2019-05-16T04:58:29.237Z,59.1
2019-05-16T04:59:43.474Z,58.8
2019-05-16T05:00:57.627Z,59.2
2019-05-16T05:02:11.865Z,59
2019-05-16T05:03:26.033Z,59.2
2019-05-16T05:04:40.232Z,58.9
2019-05-16T05:05:54.428Z,58.7
2019-05-16T05:07:08.765Z,58.9
2019-05-16T05:08:22.929Z,59.2
2019-05-16T05:09:37.049Z,58.9
2019-05-16T05:10:51.242Z,59.7
2019-05-16T05:12:05.409Z,58.8
2019-05-16T05:13:19.658Z,59.2
2019-05-16T05:14:33.793Z,59.5
2019-05-16T05:15:48.056Z,60
2019-05-16T05:17:06.010Z,60
2019-05-16T05:18:16.379Z,60.2
2019-05-16T05:19:30.587Z,59.8
2019-05-16T05:20:44.938Z,60.4
2019-05-16T05:21:59.093Z,60.8
2019-05-16T05:23:13.158Z,60.6
2019-05-16T05:24:27.369Z,59.3
2019-05-16T05:25:41.570Z,58.9
2019-05-16T05:26:55.730Z,59
2019-05-16T05:28:09.961Z,59.2
2019-05-16T05:29:24.269Z,58.5
2019-05-16T05:30:38.526Z,58.7
2019-05-16T05:31:52.606Z,59.1
2019-05-16T05:33:06.757Z,58.8
2019-05-16T05:34:20.948Z,58.9
2019-05-16T05:35:35.152Z,58
2019-05-16T05:36:49.267Z,56.9
2019-05-16T05:38:06.592Z,57.2
2019-05-16T05:39:17.631Z,57.5
2019-05-16T05:40:31.859Z,58
2019-05-16T05:41:48.596Z,56.9
2019-05-16T05:43:00.162Z,57.9
2019-05-16T05:44:14.432Z,58
2019-05-16T05:46:42.725Z,57
2019-05-16T05:47:56.894Z,58.3
2019-05-16T05:49:11.098Z,56.8
2019-05-16T05:50:25.355Z,56.4
2019-05-16T05:51:39.437Z,58.8
2019-05-16T05:52:53.698Z,58.6
2019-05-16T05:54:08.004Z,58.7
2019-05-16T05:55:22.060Z,58.8
2019-05-16T05:56:36.138Z,58.4
2019-05-16T05:57:50.372Z,57.8
2019-05-16T06:00:18.897Z,58.8
2019-05-16T06:01:32.864Z,59.4
2019-05-16T06:02:46.989Z,59.9
2019-05-16T06:04:01.197Z,58.9
2019-05-16T06:05:15.400Z,58.8
2019-05-16T06:06:29.526Z,58.7
2019-05-16T06:07:43.724Z,60.4
2019-05-16T06:08:57.908Z,60.6
2019-05-16T06:10:12.102Z,60.5
2019-05-16T06:11:26.238Z,60.4
2019-05-16T06:12:40.421Z,58.8
2019-05-16T06:15:08.830Z,58.9
2019-05-16T06:16:23.030Z,58.6
2019-05-16T06:17:37.118Z,59.9
2019-05-16T06:18:51.284Z,58.6
2019-05-16T06:20:05.787Z,58.5
2019-05-16T06:21:19.634Z,58.9
2019-05-16T06:22:33.825Z,58.8
2019-05-16T06:23:48.021Z,60.2
2019-05-16T06:25:02.600Z,60.4
2019-05-16T06:26:16.390Z,58.9
2019-05-16T06:27:30.584Z,59.5
2019-05-16T06:28:44.861Z,58.9
2019-05-16T06:29:58.934Z,58.8
2019-05-16T06:31:13.161Z,60.3
2019-05-16T06:32:27.279Z,58.7
2019-05-16T06:33:41.541Z,60.8
2019-05-16T06:34:55.673Z,58.9
2019-05-16T06:36:09.949Z,58.9
2019-05-16T06:37:24.010Z,59.4
2019-05-16T06:38:38.323Z,59.1
2019-05-16T06:39:52.442Z,60.5
2019-05-16T06:41:06.735Z,59.2
2019-05-16T06:42:21.064Z,59.1
2019-05-16T06:43:35.027Z,58.7
2019-05-16T06:44:49.205Z,58.8
2019-05-16T06:46:03.297Z,59
2019-05-16T06:47:17.487Z,59
2019-05-16T06:48:31.625Z,59.9
2019-05-16T06:49:45.826Z,58.9
2019-05-16T06:50:59.999Z,58.9
2019-05-16T06:52:14.162Z,58.4
2019-05-16T06:53:28.370Z,58.5
2019-05-16T06:54:42.542Z,59.3
2019-05-16T06:55:56.887Z,58.9
2019-05-16T06:57:10.930Z,57.9
2019-05-16T06:59:39.282Z,58.2
2019-05-16T07:00:53.480Z,58.1
2019-05-16T07:02:07.764Z,58.8
2019-05-16T07:03:21.818Z,58
2019-05-16T07:04:35.979Z,58.6
2019-05-16T07:05:50.165Z,58.3
2019-05-16T07:07:04.734Z,57.7
2019-05-16T07:08:21.485Z,58.3
2019-05-16T07:09:32.640Z,58.8
2019-05-16T07:10:46.869Z,58.6
2019-05-16T07:12:00.950Z,59
2019-05-16T07:13:15.297Z,58.3
2019-05-16T07:14:29.306Z,58.8
2019-05-16T07:15:43.437Z,58.9
2019-05-16T07:16:57.616Z,58.8
2019-05-16T07:18:12.149Z,58.5
2019-05-16T07:19:26.032Z,58.6
2019-05-16T07:20:40.112Z,58.8
2019-05-16T07:21:54.232Z,58.4
2019-05-16T07:23:08.399Z,59.2
2019-05-16T07:24:22.627Z,57.1
2019-05-16T07:25:40.279Z,56
2019-05-16T07:26:51.062Z,56.5
2019-05-16T07:28:05.043Z,57.9
2019-05-16T07:29:19.217Z,56
2019-05-16T07:30:33.485Z,56
2019-05-16T07:31:47.815Z,55.2
2019-05-16T07:33:01.698Z,53.9
2019-05-16T07:34:15.831Z,55
2019-05-16T07:35:30.174Z,55
2019-05-16T07:37:58.430Z,52.2
2019-05-16T07:39:12.407Z,55
2019-05-16T07:40:26.547Z,53.2
2019-05-16T07:41:40.713Z,54
2019-05-16T07:42:54.981Z,55.7
2019-05-16T07:44:09.032Z,53.3
2019-05-16T07:45:23.567Z,54.6
2019-05-16T07:46:37.316Z,54.7
2019-05-16T07:47:51.545Z,55
2019-05-16T07:50:19.784Z,55.2
2019-05-16T07:51:33.834Z,55.4
2019-05-16T07:52:47.982Z,54.3
2019-05-16T07:54:02.118Z,53.1
2019-05-16T07:55:19.173Z,54.6
2019-05-16T07:56:30.659Z,52.2
2019-05-16T07:57:44.529Z,53.5
2019-05-16T07:58:58.742Z,54.2
2019-05-16T08:00:12.948Z,54.8
2019-05-16T08:01:26.911Z,53.6
2019-05-16T08:02:41.152Z,53.3
2019-05-16T08:03:55.337Z,53.7
2019-05-16T08:05:09.319Z,54
2019-05-16T08:06:23.526Z,53.1
2019-05-16T08:07:37.651Z,53
2019-05-16T08:08:51.828Z,52.4
2019-05-16T08:10:05.902Z,52.3
2019-05-16T08:11:20.154Z,50.8
2019-05-16T08:12:34.116Z,50.7
2019-05-16T08:13:48.310Z,50.6
2019-05-16T08:15:02.395Z,51.9
2019-05-16T08:16:16.590Z,51.7
2019-05-16T08:17:32.036Z,50.8
2019-05-16T08:18:45.277Z,51.4
2019-05-16T08:19:58.940Z,52.5
2019-05-16T08:21:13.030Z,51.8
2019-05-16T08:22:27.171Z,51.9
2019-05-16T08:23:41.305Z,52.1
2019-05-16T08:24:55.956Z,53.3
2019-05-16T08:26:09.595Z,51.8
2019-05-16T08:27:23.715Z,51.6
2019-05-16T08:28:37.891Z,52.3
2019-05-16T08:29:51.999Z,52.2
2019-05-16T08:31:06.155Z,52.5
2019-05-16T08:32:20.273Z,52.7
2019-05-16T08:33:34.480Z,54.1
2019-05-16T08:34:48.562Z,53
2019-05-16T08:36:02.686Z,54.6
2019-05-16T08:37:17.725Z,53.4
2019-05-16T08:38:30.951Z,52.6
2019-05-16T08:39:45.200Z,53.8
2019-05-16T08:40:59.523Z,52.6
2019-05-16T08:42:13.518Z,54.3
2019-05-16T08:43:27.612Z,54
2019-05-16T08:44:41.718Z,53.1
2019-05-16T08:45:55.795Z,53.5
2019-05-16T08:48:24.064Z,53.3
2019-05-16T08:49:38.416Z,51.8
2019-05-16T08:50:52.342Z,51.9
2019-05-16T08:52:06.737Z,53.3
2019-05-16T08:53:20.612Z,51.2
2019-05-16T08:54:34.938Z,49
2019-05-16T08:55:48.890Z,49.5
2019-05-16T08:57:02.968Z,47.9
2019-05-16T08:58:17.087Z,47.9
2019-05-16T08:59:31.212Z,47.5
2019-05-16T09:00:45.422Z,47.7
2019-05-16T09:01:59.531Z,49.3
2019-05-16T09:03:13.561Z,50.2
2019-05-16T09:04:27.699Z,50.5
2019-05-16T09:05:41.938Z,51.1
2019-05-16T09:06:55.971Z,51.3
2019-05-16T09:08:10.021Z,50.6
2019-05-16T09:09:24.154Z,50.7
2019-05-16T09:10:38.267Z,50.4
2019-05-16T09:11:52.328Z,49.8
2019-05-16T09:13:06.606Z,50.3
2019-05-16T09:14:20.574Z,51.4
2019-05-16T09:16:48.875Z,52.2
2019-05-16T09:18:02.998Z,52.4
2019-05-16T09:19:17.192Z,52.8
2019-05-16T09:20:31.343Z,52
2019-05-16T09:21:49.642Z,51.7
2019-05-16T09:22:59.544Z,51.1
2019-05-16T09:24:13.579Z,50.6
2019-05-16T09:25:32.216Z,51.4
2019-05-16T09:26:41.837Z,52.7
2019-05-16T09:27:55.929Z,51.8
2019-05-16T09:29:10.090Z,53.7
2019-05-16T09:30:24.189Z,52.5
2019-05-16T09:31:38.436Z,51.8
2019-05-16T09:32:52.450Z,51.7
2019-05-16T09:34:08.855Z,51
2019-05-16T09:35:20.692Z,51.7
2019-05-16T09:36:34.779Z,50.7
2019-05-16T09:37:49.226Z,51.2
2019-05-16T09:39:03.205Z,50.1
2019-05-16T09:41:37.821Z,48.5
2019-05-16T09:42:45.545Z,50.6
2019-05-16T09:43:59.581Z,52.1
2019-05-16T09:45:13.676Z,53
2019-05-16T09:46:27.790Z,53.8
2019-05-16T09:47:41.797Z,51.8
2019-05-16T09:48:55.933Z,52
2019-05-16T09:50:10.035Z,52.5
2019-05-16T09:51:24.176Z,52.7
2019-05-16T09:52:38.275Z,52.9
2019-05-16T09:53:52.387Z,52.9
2019-05-16T09:55:06.807Z,50.8
2019-05-16T10:25:18.463Z,54.4
2019-05-16T10:26:09.723Z,55.7
2019-05-16T10:27:31.548Z,53.9
2019-05-16T10:28:53.853Z,54.6
2019-05-16T10:30:57.907Z,55.1
2019-05-16T10:32:10.401Z,55.7
2019-05-16T10:33:24.639Z,55.1
2019-05-16T10:34:38.741Z,55.2
2019-05-16T10:35:53.592Z,55.2
2019-05-16T10:37:07.772Z,55.2
2019-05-16T10:39:35.751Z,55.9
2019-05-16T10:40:49.856Z,54.7
2019-05-16T10:43:18.066Z,55.6
2019-05-16T10:44:32.303Z,55.8
2019-05-16T10:47:00.459Z,54.2
2019-05-16T10:48:14.378Z,55.8
2019-05-16T10:49:28.879Z,55.6
2019-05-16T10:50:42.716Z,55.4
2019-05-16T10:51:56.964Z,55.8
2019-05-16T10:53:10.866Z,55.7
2019-05-16T10:55:40.944Z,55.6
2019-05-16T10:56:53.537Z,55.8
2019-05-16T10:58:07.489Z,56.5
2019-05-16T10:59:21.664Z,56.8
2019-05-16T11:00:35.768Z,56.2
2019-05-16T11:01:50.058Z,57
2019-05-16T11:03:04.105Z,58.1
2019-05-16T11:04:18.321Z,56.4
2019-05-16T11:05:32.626Z,56.5
2019-05-16T11:06:46.634Z,56.9
2019-05-16T11:08:01.386Z,56.9
2019-05-16T11:09:15.318Z,56.1
2019-05-16T11:10:29.102Z,58
2019-05-16T11:11:43.417Z,56
2019-05-16T11:12:57.463Z,57.4
2019-05-16T11:14:11.601Z,56.5
2019-05-16T11:15:25.797Z,56.9
2019-05-16T11:16:40.069Z,56.5
2019-05-16T11:17:54.265Z,55.6
2019-05-16T11:20:22.461Z,55.6
2019-05-16T11:21:36.860Z,56.9
2019-05-16T11:22:50.813Z,56.6
2019-05-16T11:24:06.025Z,56.7
2019-05-16T11:25:19.852Z,58.5
2019-05-16T11:26:33.340Z,55.8
2019-05-16T11:27:47.430Z,56.2
2019-05-16T11:29:01.482Z,56.6
2019-05-16T11:30:15.719Z,56.9
2019-05-16T11:32:43.976Z,58
2019-05-16T11:35:12.408Z,56.4
2019-05-16T11:36:26.591Z,56
2019-05-16T11:37:40.583Z,56.3
2019-05-16T11:38:54.791Z,56
2019-05-16T11:40:09.017Z,55.1
2019-05-16T11:41:23.050Z,55
2019-05-16T11:42:37.532Z,53.5
2019-05-16T11:43:51.389Z,53.6
2019-05-16T11:45:05.660Z,54.4
2019-05-16T11:46:19.707Z,54.2
2019-05-16T11:47:33.956Z,54.8
2019-05-16T11:48:48.013Z,53.2
2019-05-16T11:50:02.108Z,54.1
2019-05-16T11:51:16.188Z,50.1
2019-05-16T11:52:30.330Z,52.1
2019-05-16T11:53:44.474Z,50.4
2019-05-16T11:55:00.245Z,51.5
2019-05-16T11:56:12.774Z,49
2019-05-16T11:57:26.865Z,50.1
2019-05-16T11:58:40.988Z,47.9
2019-05-16T11:59:55.148Z,47.9
2019-05-16T12:01:09.186Z,49
2019-05-16T12:02:23.374Z,49.4
2019-05-16T12:03:37.415Z,45.9
2019-05-16T12:04:51.640Z,46.3
2019-05-16T12:06:05.666Z,47.9
2019-05-16T12:07:19.676Z,43.2
2019-05-16T12:08:33.906Z,44.7
2019-05-16T12:09:47.995Z,46.5
2019-05-16T12:11:02.104Z,49.5
2019-05-16T12:13:30.272Z,50.9
2019-05-16T12:14:44.283Z,49.5
2019-05-16T12:15:58.345Z,49.5
2019-05-16T12:17:12.455Z,50.4
2019-05-16T12:19:40.748Z,51.2
2019-05-16T12:20:54.798Z,51.6
2019-05-16T12:22:08.849Z,51.3
2019-05-16T12:23:22.990Z,52.2
2019-05-16T12:24:37.083Z,51.9
2019-05-16T12:27:05.359Z,51.6
2019-05-16T12:28:20.776Z,52.5
2019-05-16T12:29:33.521Z,52.5
2019-05-16T12:30:47.668Z,51.6
2019-05-16T12:33:15.820Z,54.4
2019-05-16T12:34:30.142Z,54.3
2019-05-16T12:36:58.567Z,56.6
2019-05-16T12:38:12.332Z,57.1
2019-05-16T12:39:26.468Z,58
2019-05-16T12:40:40.664Z,58.1
2019-05-16T12:41:54.727Z,57.9
2019-05-16T12:43:08.863Z,58.6
2019-05-16T12:44:28.015Z,58.4
2019-05-16T12:45:37.181Z,58.3
2019-05-16T12:46:51.319Z,58.8
2019-05-16T12:48:05.502Z,60.7
2019-05-16T12:49:19.689Z,58.8
2019-05-16T12:50:33.809Z,59
2019-05-16T12:51:47.939Z,58.7
2019-05-16T12:53:02.121Z,59.9
2019-05-16T12:54:16.365Z,60.7
2019-05-16T12:55:33.069Z,60.9
2019-05-16T12:56:44.896Z,60.6
2019-05-16T12:57:58.770Z,60.4
2019-05-16T12:59:12.945Z,60.1
2019-05-16T13:00:27.084Z,59.6
2019-05-16T13:01:41.249Z,59.4
2019-05-16T13:02:59.801Z,59.4
2019-05-16T13:04:09.653Z,59.6
2019-05-16T13:05:23.746Z,59
2019-05-16T13:06:37.974Z,60
2019-05-16T13:12:48.812Z,57.8
2019-05-16T13:14:02.894Z,57
2019-05-16T13:15:17.026Z,57.7
2019-05-16T13:16:31.231Z,58.6
2019-05-16T13:17:45.347Z,58.5
2019-05-16T13:18:59.458Z,58.1
2019-05-16T13:20:13.623Z,56.9
2019-05-16T13:21:27.772Z,57.7
2019-05-16T13:22:41.911Z,58.6
2019-05-16T13:23:56.183Z,58.2
2019-05-16T13:25:11.699Z,58.7
2019-05-16T13:26:24.391Z,58.1
2019-05-16T13:27:38.641Z,59.5
2019-05-16T13:28:52.749Z,60
2019-05-16T13:31:21.136Z,59.3
2019-05-16T13:32:35.153Z,60
2019-05-16T13:33:49.381Z,58.6
2019-05-16T13:35:03.488Z,58.3
2019-05-16T13:36:17.729Z,58.6
2019-05-16T13:37:31.873Z,58.1
2019-05-16T13:38:45.991Z,58.7
2019-05-16T13:40:00.175Z,57.9
2019-05-16T13:41:14.483Z,58.7
2019-05-16T13:42:29.046Z,58.4
2019-05-16T13:43:42.613Z,58.2
2019-05-16T13:44:56.727Z,58
2019-05-16T13:46:10.886Z,59
2019-05-16T13:47:25.049Z,56.8
2019-05-16T13:48:39.245Z,56.9
2019-05-16T13:49:53.329Z,57.1
2019-05-16T13:51:07.624Z,56.6
2019-05-16T13:52:21.649Z,57
2019-05-16T13:53:35.768Z,56.1
2019-05-16T13:54:49.922Z,56.4
2019-05-16T13:56:04.067Z,56.4
2019-05-16T13:57:18.199Z,57.5
2019-05-16T13:58:32.330Z,56.5
2019-05-16T14:01:00.613Z,56.8
2019-05-16T14:02:14.752Z,57.6
2019-05-16T14:03:28.971Z,57.5
2019-05-16T14:04:43.037Z,58.1
2019-05-16T14:05:57.339Z,58.8
2019-05-16T14:07:11.339Z,58.1
2019-05-16T14:08:25.695Z,58.8
2019-05-16T14:09:39.650Z,58.2
2019-05-16T14:10:53.810Z,58.2
2019-05-16T14:12:07.964Z,59
2019-05-16T14:13:22.093Z,58.8
2019-05-16T14:14:36.252Z,58.5
2019-05-16T14:15:50.406Z,58.8
2019-05-16T14:17:04.747Z,59.1
2019-05-16T14:18:18.693Z,58.8
2019-05-16T14:19:32.963Z,59.2
2019-05-16T14:20:47.108Z,59
2019-05-16T14:22:01.220Z,58.6
2019-05-16T14:23:15.408Z,58.8
2019-05-16T14:24:29.494Z,59.5
2019-05-16T14:25:43.725Z,60.1
2019-05-16T14:26:57.797Z,60
2019-05-16T14:28:12.049Z,59.6
2019-05-16T14:29:26.116Z,58.4
2019-05-16T14:30:40.415Z,58.7
2019-05-16T14:31:54.476Z,58.5
2019-05-16T14:33:08.637Z,56.9
2019-05-16T14:34:22.839Z,57.1
2019-05-16T14:35:37.023Z,58.2
2019-05-16T14:36:51.017Z,57.8
2019-05-16T14:38:05.289Z,58.1
2019-05-16T14:39:19.445Z,58.4
2019-05-16T14:40:33.473Z,60.4
2019-05-16T14:41:47.617Z,60.5
2019-05-16T14:43:01.876Z,60.5
2019-05-16T14:45:30.307Z,59.8
2019-05-16T14:46:44.217Z,61.9
2019-05-16T14:47:58.380Z,63.6
2019-05-16T14:49:14.039Z,64
2019-05-16T14:50:27.078Z,63.7
2019-05-16T14:51:40.853Z,63.4
2019-05-16T14:52:54.986Z,63.7
2019-05-16T14:54:09.171Z,64.6
2019-05-16T14:55:23.506Z,64.8
2019-05-16T14:56:37.526Z,64.6
2019-05-16T14:57:51.750Z,64.3
2019-05-16T14:59:05.787Z,65.8
2019-05-16T15:00:19.883Z,65.7
2019-05-16T15:02:48.213Z,67.1
2019-05-16T15:04:02.495Z,67.1
2019-05-16T15:05:16.604Z,66.8
2019-05-16T15:06:30.836Z,67.8
2019-05-16T15:07:45.104Z,67.9
2019-05-16T15:08:59.002Z,67.8
2019-05-16T15:10:13.239Z,68
2019-05-16T15:11:27.405Z,67.7
2019-05-16T15:12:41.510Z,68.3
2019-05-16T15:15:09.853Z,69.9
2019-05-16T15:16:24.025Z,69
2019-05-16T15:17:38.238Z,69.6
2019-05-16T15:18:52.350Z,70.2
2019-05-16T15:20:06.686Z,69.2
2019-05-16T15:21:20.685Z,68.8
2019-05-16T15:22:34.830Z,68.9
2019-05-16T15:25:03.294Z,69.5
2019-05-16T15:26:17.311Z,69.4
2019-05-16T15:27:31.474Z,69.3
2019-05-16T15:28:45.700Z,69.6
2019-05-16T15:29:59.857Z,70.2
2019-05-16T15:31:14.031Z,70.4
2019-05-16T15:32:28.150Z,70.4
2019-05-16T15:33:42.429Z,70.8
2019-05-16T15:34:56.457Z,70.3
2019-05-16T15:36:10.614Z,70.9
2019-05-16T15:37:24.815Z,70.8
2019-05-16T15:38:39.049Z,71.1
2019-05-16T15:39:53.243Z,71.2
2019-05-16T15:41:07.296Z,70.5
2019-05-16T15:42:21.519Z,70.6
2019-05-16T15:43:35.679Z,70.8
2019-05-16T15:44:49.942Z,71
2019-05-16T15:46:03.971Z,71.5
2019-05-16T15:47:18.097Z,70.9
2019-05-16T15:48:32.312Z,71.9
2019-05-16T15:49:46.503Z,71.8
2019-05-16T15:51:00.589Z,72
2019-05-16T15:52:14.923Z,72.2
2019-05-16T15:53:28.961Z,72.5
2019-05-16T15:54:43.106Z,72.8
2019-05-16T15:55:57.279Z,73.3
2019-05-16T15:57:11.436Z,72.6
2019-05-16T15:58:25.810Z,73.2
2019-05-16T15:59:39.878Z,72.8
2019-05-16T16:00:53.990Z,73.2
2019-05-16T16:02:08.283Z,73.1
2019-05-16T16:03:22.279Z,72.7
2019-05-16T16:04:36.616Z,73.1
2019-05-16T16:05:50.793Z,73.3
2019-05-16T16:07:04.868Z,73.3
2019-05-16T16:08:18.989Z,73.3
2019-05-16T16:09:33.178Z,72.4
2019-05-16T16:10:47.435Z,72.8
2019-05-16T16:12:01.479Z,72.2
2019-05-16T16:13:15.884Z,72.2
2019-05-16T16:14:29.937Z,72.2
2019-05-16T16:15:44.007Z,72.6
2019-05-16T16:16:58.177Z,71.8
2019-05-16T16:18:12.347Z,72.4
2019-05-16T16:19:26.515Z,73.2
2019-05-16T16:20:42.412Z,73.9
2019-05-16T16:21:54.952Z,74.5
2019-05-16T16:23:09.063Z,73.8
2019-05-16T16:24:23.363Z,74.1
2019-05-16T16:25:37.389Z,74.6
2019-05-16T16:26:51.760Z,75.7
2019-05-16T16:28:05.751Z,75.1
2019-05-16T16:29:19.934Z,76.1
2019-05-16T16:30:34.068Z,75
2019-05-16T16:31:48.248Z,75.8
2019-05-16T16:33:02.428Z,75.3
2019-05-16T16:34:16.608Z,75.8
2019-05-16T16:35:30.808Z,76.7
2019-05-16T16:36:44.953Z,76.7
2019-05-16T16:37:59.189Z,76.7
2019-05-16T16:39:13.286Z,76.9
2019-05-16T16:40:27.485Z,77.3
2019-05-16T16:41:41.660Z,77.3
2019-05-16T16:42:55.848Z,78.3
2019-05-16T16:44:10.102Z,78.4
2019-05-16T16:45:24.226Z,79.7
2019-05-16T16:46:38.391Z,80.3
2019-05-16T16:47:52.792Z,80.2
2019-05-16T16:49:06.824Z,81.7
2019-05-16T16:50:20.907Z,81.5
2019-05-16T16:51:35.094Z,82.4
2019-05-16T16:54:03.573Z,82.3
2019-05-16T16:55:17.641Z,82.5
2019-05-16T16:56:31.820Z,82.8
2019-05-16T16:57:46.036Z,82.9
2019-05-16T16:59:00.195Z,84.2
2019-05-16T17:00:14.420Z,82.9
2019-05-16T17:01:28.564Z,83.5
2019-05-16T17:02:42.743Z,82.4
2019-05-16T17:03:56.924Z,83
2019-05-16T17:05:11.131Z,83.2
2019-05-16T17:06:25.445Z,83.2
2019-05-16T17:07:39.505Z,83.5
2019-05-16T17:08:53.662Z,83
2019-05-16T17:10:07.847Z,84.6
2019-05-16T17:11:22.026Z,83.7
2019-05-16T17:13:50.419Z,84.4
2019-05-16T17:15:04.697Z,84.5
2019-05-16T17:16:18.765Z,85.5
2019-05-16T17:17:32.957Z,85.8
2019-05-16T17:18:47.251Z,86.3
2019-05-16T17:20:01.310Z,87.4
2019-05-16T17:21:15.595Z,89.4
2019-05-16T17:22:29.791Z,89.1
2019-05-16T17:23:43.874Z,89.7
2019-05-16T17:25:01.336Z,90.1
2019-05-16T17:26:12.250Z,90.5
2019-05-16T17:27:26.443Z,91.1
2019-05-16T17:28:40.842Z,91.2
2019-05-16T17:29:54.811Z,91.4
2019-05-16T17:31:08.994Z,91.2
2019-05-16T17:32:23.181Z,91
2019-05-16T17:33:37.376Z,92.3
2019-05-16T17:34:51.578Z,92.4
2019-05-16T17:36:05.748Z,91.8
2019-05-16T17:37:19.921Z,91.5
2019-05-16T17:38:34.116Z,92.3
2019-05-16T17:39:48.318Z,92.6
2019-05-16T17:41:02.494Z,92.1
2019-05-16T17:42:16.737Z,92.4
2019-05-16T17:43:30.863Z,91.5
2019-05-16T17:44:45.138Z,92.7
2019-05-16T17:45:59.329Z,92.9
2019-05-16T17:47:13.440Z,92.3
2019-05-16T17:48:27.645Z,92.9
2019-05-16T17:49:41.936Z,92.4
2019-05-16T17:50:56.034Z,92.2
2019-05-16T17:52:10.225Z,92.8
2019-05-16T17:53:24.414Z,92.9
2019-05-16T17:54:38.752Z,93